sensor_id;sensor_type;location;lat;lon;timestamp;P1;durP1;ratioP1;P2;durP2;ratioP2
13985;SDS011;7067;51.832;8.296;2024-02-21T00:00:28;27.00;;;13.55;;
13985;SDS011;7067;51.832;8.296;2024-02-21T00:02:53;30.10;;;14.88;;
13985;SDS011;7067;51.832;8.296;2024-02-21T00:05:19;23.70;;;14.00;;
13985;SDS011;7067;51.832;8.296;2024-02-21T00:07:44;30.25;;;15.25;;
13985;SDS011;7067;51.832;8.296;2024-02-21T00:10:09;30.70;;;14.80;;
13985;SDS011;7067;51.832;8.296;2024-02-21T00:12:35;32.45;;;14.90;;
13985;SDS011;7067;51.832;8.296;2024-02-21T00:15:00;28.45;;;14.48;;
13985;SDS011;7067;51.832;8.296;2024-02-21T00:17:26;27.95;;;15.77;;
13985;SDS011;7067;51.832;8.296;2024-02-21T00:19:51;30.70;;;16.20;;
13985;SDS011;7067;51.832;8.296;2024-02-21T00:22:16;27.25;;;15.50;;
13985;SDS011;7067;51.832;8.296;2024-02-21T00:24:42;30.83;;;16.27;;
13985;SDS011;7067;51.832;8.296;2024-02-21T00:27:07;29.48;;;15.68;;
13985;SDS011;7067;51.832;8.296;2024-02-21T00:29:32;28.75;;;14.68;;
13985;SDS011;7067;51.832;8.296;2024-02-21T00:31:59;25.42;;;15.00;;
13985;SDS011;7067;51.832;8.296;2024-02-21T00:34:24;27.02;;;14.90;;
13985;SDS011;7067;51.832;8.296;2024-02-21T00:36:50;26.60;;;14.80;;
13985;SDS011;7067;51.832;8.296;2024-02-21T00:39:15;26.70;;;14.90;;
13985;SDS011;7067;51.832;8.296;2024-02-21T00:41:41;27.58;;;14.98;;
13985;SDS011;7067;51.832;8.296;2024-02-21T00:44:06;26.52;;;15.40;;
13985;SDS011;7067;51.832;8.296;2024-02-21T00:46:31;27.55;;;14.85;;
13985;SDS011;7067;51.832;8.296;2024-02-21T00:48:57;27.27;;;15.70;;
13985;SDS011;7067;51.832;8.296;2024-02-21T00:51:22;33.65;;;16.92;;
13985;SDS011;7067;51.832;8.296;2024-02-21T00:53:47;27.85;;;15.52;;
13985;SDS011;7067;51.832;8.296;2024-02-21T00:56:13;31.38;;;15.18;;
13985;SDS011;7067;51.832;8.296;2024-02-21T00:58:38;31.48;;;15.57;;
13985;SDS011;7067;51.832;8.296;2024-02-21T01:01:04;25.92;;;14.35;;
13985;SDS011;7067;51.832;8.296;2024-02-21T01:03:29;35.10;;;15.23;;
13985;SDS011;7067;51.832;8.296;2024-02-21T01:05:54;29.75;;;14.63;;
13985;SDS011;7067;51.832;8.296;2024-02-21T01:08:20;25.52;;;16.33;;
13985;SDS011;7067;51.832;8.296;2024-02-21T01:10:45;29.95;;;16.02;;
13985;SDS011;7067;51.832;8.296;2024-02-21T01:13:10;33.92;;;14.63;;
13985;SDS011;7067;51.832;8.296;2024-02-21T01:15:36;30.95;;;15.48;;
13985;SDS011;7067;51.832;8.296;2024-02-21T01:18:01;26.60;;;14.75;;
13985;SDS011;7067;51.832;8.296;2024-02-21T01:20:27;31.13;;;15.57;;
13985;SDS011;7067;51.832;8.296;2024-02-21T01:22:52;30.08;;;15.68;;
13985;SDS011;7067;51.832;8.296;2024-02-21T01:25:18;24.20;;;14.02;;
13985;SDS011;7067;51.832;8.296;2024-02-21T01:27:43;34.67;;;16.30;;
13985;SDS011;7067;51.832;8.296;2024-02-21T01:30:08;30.77;;;14.68;;
13985;SDS011;7067;51.832;8.296;2024-02-21T01:32:35;28.10;;;15.68;;
13985;SDS011;7067;51.832;8.296;2024-02-21T01:35:01;32.63;;;16.02;;
13985;SDS011;7067;51.832;8.296;2024-02-21T01:37:26;28.08;;;15.63;;
13985;SDS011;7067;51.832;8.296;2024-02-21T01:39:52;34.15;;;16.52;;
13985;SDS011;7067;51.832;8.296;2024-02-21T01:42:17;31.48;;;15.80;;
13985;SDS011;7067;51.832;8.296;2024-02-21T01:44:43;31.63;;;15.15;;
13985;SDS011;7067;51.832;8.296;2024-02-21T01:47:08;26.70;;;15.15;;
13985;SDS011;7067;51.832;8.296;2024-02-21T01:49:33;29.92;;;15.65;;
13985;SDS011;7067;51.832;8.296;2024-02-21T01:51:59;29.25;;;16.58;;
13985;SDS011;7067;51.832;8.296;2024-02-21T01:54:25;25.33;;;15.32;;
13985;SDS011;7067;51.832;8.296;2024-02-21T01:56:50;27.05;;;15.80;;
13985;SDS011;7067;51.832;8.296;2024-02-21T01:59:16;29.50;;;16.65;;
13985;SDS011;7067;51.832;8.296;2024-02-21T02:01:41;33.05;;;16.73;;
13985;SDS011;7067;51.832;8.296;2024-02-21T02:04:07;30.58;;;14.88;;
13985;SDS011;7067;51.832;8.296;2024-02-21T02:06:32;28.92;;;15.27;;
13985;SDS011;7067;51.832;8.296;2024-02-21T02:08:58;25.05;;;15.95;;
13985;SDS011;7067;51.832;8.296;2024-02-21T02:11:23;27.80;;;15.63;;
13985;SDS011;7067;51.832;8.296;2024-02-21T02:13:48;25.92;;;15.40;;
13985;SDS011;7067;51.832;8.296;2024-02-21T02:16:14;29.88;;;15.98;;
13985;SDS011;7067;51.832;8.296;2024-02-21T02:18:39;32.78;;;16.30;;
13985;SDS011;7067;51.832;8.296;2024-02-21T02:21:05;30.38;;;16.77;;
13985;SDS011;7067;51.832;8.296;2024-02-21T02:23:39;26.25;;;15.38;;
13985;SDS011;7067;51.832;8.296;2024-02-21T02:26:04;23.05;;;15.70;;
13985;SDS011;7067;51.832;8.296;2024-02-21T02:28:32;29.08;;;17.52;;
13985;SDS011;7067;51.832;8.296;2024-02-21T02:30:57;29.48;;;16.05;;
13985;SDS011;7067;51.832;8.296;2024-02-21T02:33:23;27.40;;;15.90;;
13985;SDS011;7067;51.832;8.296;2024-02-21T02:35:48;22.20;;;15.18;;
13985;SDS011;7067;51.832;8.296;2024-02-21T02:38:14;26.95;;;15.80;;
13985;SDS011;7067;51.832;8.296;2024-02-21T02:40:40;22.95;;;15.38;;
13985;SDS011;7067;51.832;8.296;2024-02-21T02:43:06;28.73;;;16.08;;
13985;SDS011;7067;51.832;8.296;2024-02-21T02:45:31;27.27;;;15.60;;
13985;SDS011;7067;51.832;8.296;2024-02-21T02:47:57;30.30;;;15.55;;
13985;SDS011;7067;51.832;8.296;2024-02-21T02:50:23;22.40;;;15.25;;
13985;SDS011;7067;51.832;8.296;2024-02-21T02:52:49;24.83;;;14.60;;
13985;SDS011;7067;51.832;8.296;2024-02-21T02:55:14;29.52;;;15.80;;
13985;SDS011;7067;51.832;8.296;2024-02-21T02:57:39;23.92;;;14.52;;
13985;SDS011;7067;51.832;8.296;2024-02-21T03:00:07;27.27;;;16.27;;
13985;SDS011;7067;51.832;8.296;2024-02-21T03:02:33;20.13;;;13.43;;
13985;SDS011;7067;51.832;8.296;2024-02-21T03:04:58;25.90;;;14.55;;
13985;SDS011;7067;51.832;8.296;2024-02-21T03:07:24;25.50;;;14.48;;
13985;SDS011;7067;51.832;8.296;2024-02-21T03:09:50;23.52;;;14.68;;
13985;SDS011;7067;51.832;8.296;2024-02-21T03:12:15;20.17;;;13.82;;
13985;SDS011;7067;51.832;8.296;2024-02-21T03:14:49;28.92;;;15.18;;
13985;SDS011;7067;51.832;8.296;2024-02-21T03:17:15;27.35;;;15.35;;
13985;SDS011;7067;51.832;8.296;2024-02-21T03:19:40;27.00;;;14.63;;
13985;SDS011;7067;51.832;8.296;2024-02-21T03:22:05;22.80;;;13.95;;
13985;SDS011;7067;51.832;8.296;2024-02-21T03:24:31;23.38;;;13.85;;
13985;SDS011;7067;51.832;8.296;2024-02-21T03:26:56;29.55;;;15.20;;
13985;SDS011;7067;51.832;8.296;2024-02-21T03:29:23;22.98;;;14.57;;
13985;SDS011;7067;51.832;8.296;2024-02-21T03:31:49;25.13;;;13.35;;
13985;SDS011;7067;51.832;8.296;2024-02-21T03:34:14;29.38;;;14.38;;
13985;SDS011;7067;51.832;8.296;2024-02-21T03:36:40;24.73;;;13.68;;
13985;SDS011;7067;51.832;8.296;2024-02-21T03:39:05;25.92;;;14.18;;
13985;SDS011;7067;51.832;8.296;2024-02-21T03:41:30;23.13;;;13.38;;
13985;SDS011;7067;51.832;8.296;2024-02-21T03:43:56;24.17;;;13.75;;
13985;SDS011;7067;51.832;8.296;2024-02-21T03:46:21;22.40;;;13.95;;
13985;SDS011;7067;51.832;8.296;2024-02-21T03:48:46;23.67;;;13.07;;
13985;SDS011;7067;51.832;8.296;2024-02-21T03:51:12;25.05;;;13.98;;
13985;SDS011;7067;51.832;8.296;2024-02-21T03:53:37;18.10;;;13.82;;
13985;SDS011;7067;51.832;8.296;2024-02-21T03:56:03;24.27;;;13.30;;
13985;SDS011;7067;51.832;8.296;2024-02-21T03:58:29;22.30;;;13.18;;
13985;SDS011;7067;51.832;8.296;2024-02-21T04:00:55;24.83;;;12.45;;
13985;SDS011;7067;51.832;8.296;2024-02-21T04:03:20;23.67;;;13.43;;
13985;SDS011;7067;51.832;8.296;2024-02-21T04:05:45;24.67;;;13.40;;
13985;SDS011;7067;51.832;8.296;2024-02-21T04:08:11;21.27;;;12.55;;
13985;SDS011;7067;51.832;8.296;2024-02-21T04:10:37;23.38;;;12.45;;
13985;SDS011;7067;51.832;8.296;2024-02-21T04:13:02;22.48;;;11.95;;
13985;SDS011;7067;51.832;8.296;2024-02-21T04:15:28;16.60;;;11.38;;
13985;SDS011;7067;51.832;8.296;2024-02-21T04:17:54;30.65;;;12.55;;
13985;SDS011;7067;51.832;8.296;2024-02-21T04:20:19;22.10;;;12.07;;
13985;SDS011;7067;51.832;8.296;2024-02-21T04:22:44;22.42;;;11.43;;
13985;SDS011;7067;51.832;8.296;2024-02-21T04:25:10;22.02;;;11.13;;
13985;SDS011;7067;51.832;8.296;2024-02-21T04:27:38;20.83;;;12.65;;
13985;SDS011;7067;51.832;8.296;2024-02-21T04:30:06;23.63;;;12.23;;
13985;SDS011;7067;51.832;8.296;2024-02-21T04:32:32;23.38;;;10.80;;
13985;SDS011;7067;51.832;8.296;2024-02-21T04:34:57;18.98;;;11.32;;
13985;SDS011;7067;51.832;8.296;2024-02-21T04:37:22;18.42;;;11.20;;
13985;SDS011;7067;51.832;8.296;2024-02-21T04:39:48;25.13;;;12.55;;
13985;SDS011;7067;51.832;8.296;2024-02-21T04:42:14;18.77;;;11.52;;
13985;SDS011;7067;51.832;8.296;2024-02-21T04:44:40;20.38;;;10.30;;
13985;SDS011;7067;51.832;8.296;2024-02-21T04:47:06;24.17;;;11.98;;
13985;SDS011;7067;51.832;8.296;2024-02-21T04:49:32;23.05;;;12.68;;
13985;SDS011;7067;51.832;8.296;2024-02-21T04:51:57;21.88;;;11.73;;
13985;SDS011;7067;51.832;8.296;2024-02-21T04:54:22;17.23;;;10.68;;
13985;SDS011;7067;51.832;8.296;2024-02-21T04:56:48;19.80;;;10.68;;
13985;SDS011;7067;51.832;8.296;2024-02-21T04:59:13;16.70;;;11.90;;
13985;SDS011;7067;51.832;8.296;2024-02-21T05:01:38;21.92;;;12.23;;
13985;SDS011;7067;51.832;8.296;2024-02-21T05:04:04;22.77;;;12.00;;
13985;SDS011;7067;51.832;8.296;2024-02-21T05:06:29;23.48;;;11.75;;
13985;SDS011;7067;51.832;8.296;2024-02-21T05:08:54;21.92;;;12.02;;
13985;SDS011;7067;51.832;8.296;2024-02-21T05:11:20;18.15;;;11.07;;
13985;SDS011;7067;51.832;8.296;2024-02-21T05:13:46;21.08;;;12.18;;
13985;SDS011;7067;51.832;8.296;2024-02-21T05:16:12;23.67;;;12.63;;
13985;SDS011;7067;51.832;8.296;2024-02-21T05:18:37;22.85;;;12.98;;
13985;SDS011;7067;51.832;8.296;2024-02-21T05:21:02;19.58;;;11.88;;
13985;SDS011;7067;51.832;8.296;2024-02-21T05:23:28;26.65;;;13.60;;
13985;SDS011;7067;51.832;8.296;2024-02-21T05:25:53;24.05;;;14.27;;
13985;SDS011;7067;51.832;8.296;2024-02-21T05:28:18;20.55;;;12.10;;
13985;SDS011;7067;51.832;8.296;2024-02-21T05:30:44;19.02;;;12.63;;
13985;SDS011;7067;51.832;8.296;2024-02-21T05:33:09;18.13;;;11.85;;
13985;SDS011;7067;51.832;8.296;2024-02-21T05:35:35;25.55;;;13.02;;
13985;SDS011;7067;51.832;8.296;2024-02-21T05:38:01;22.85;;;12.95;;
13985;SDS011;7067;51.832;8.296;2024-02-21T05:40:29;20.92;;;12.68;;
13985;SDS011;7067;51.832;8.296;2024-02-21T05:42:54;25.65;;;12.70;;
13985;SDS011;7067;51.832;8.296;2024-02-21T05:45:20;20.33;;;13.02;;
13985;SDS011;7067;51.832;8.296;2024-02-21T05:47:45;22.27;;;13.48;;
13985;SDS011;7067;51.832;8.296;2024-02-21T05:50:10;25.63;;;13.32;;
13985;SDS011;7067;51.832;8.296;2024-02-21T05:52:36;21.00;;;13.55;;
13985;SDS011;7067;51.832;8.296;2024-02-21T05:55:01;25.10;;;13.07;;
13985;SDS011;7067;51.832;8.296;2024-02-21T05:57:26;21.33;;;13.05;;
13985;SDS011;7067;51.832;8.296;2024-02-21T05:59:52;18.77;;;12.25;;
13985;SDS011;7067;51.832;8.296;2024-02-21T06:02:17;18.38;;;12.13;;
13985;SDS011;7067;51.832;8.296;2024-02-21T06:04:43;18.02;;;12.13;;
13985;SDS011;7067;51.832;8.296;2024-02-21T06:07:09;23.35;;;11.70;;
13985;SDS011;7067;51.832;8.296;2024-02-21T06:09:34;22.45;;;12.27;;
13985;SDS011;7067;51.832;8.296;2024-02-21T06:12:00;21.33;;;11.15;;
13985;SDS011;7067;51.832;8.296;2024-02-21T06:14:25;22.88;;;10.82;;
13985;SDS011;7067;51.832;8.296;2024-02-21T06:16:51;14.65;;;10.13;;
13985;SDS011;7067;51.832;8.296;2024-02-21T06:19:16;18.85;;;10.15;;
13985;SDS011;7067;51.832;8.296;2024-02-21T06:21:42;15.60;;;9.85;;
13985;SDS011;7067;51.832;8.296;2024-02-21T06:24:07;17.50;;;9.57;;
13985;SDS011;7067;51.832;8.296;2024-02-21T06:26:32;18.95;;;10.88;;
13985;SDS011;7067;51.832;8.296;2024-02-21T06:28:58;20.90;;;10.55;;
13985;SDS011;7067;51.832;8.296;2024-02-21T06:31:25;15.02;;;10.40;;
13985;SDS011;7067;51.832;8.296;2024-02-21T06:33:52;18.85;;;9.32;;
13985;SDS011;7067;51.832;8.296;2024-02-21T06:36:17;19.38;;;9.88;;
13985;SDS011;7067;51.832;8.296;2024-02-21T06:38:42;16.67;;;9.75;;
13985;SDS011;7067;51.832;8.296;2024-02-21T06:41:17;15.70;;;10.63;;
13985;SDS011;7067;51.832;8.296;2024-02-21T06:43:44;15.80;;;9.93;;
13985;SDS011;7067;51.832;8.296;2024-02-21T06:46:12;18.00;;;9.73;;
13985;SDS011;7067;51.832;8.296;2024-02-21T06:48:53;15.85;;;9.45;;
13985;SDS011;7067;51.832;8.296;2024-02-21T06:51:21;18.08;;;9.48;;
13985;SDS011;7067;51.832;8.296;2024-02-21T06:53:46;18.05;;;9.80;;
13985;SDS011;7067;51.832;8.296;2024-02-21T06:56:12;17.02;;;9.70;;
13985;SDS011;7067;51.832;8.296;2024-02-21T06:58:37;12.57;;;8.98;;
13985;SDS011;7067;51.832;8.296;2024-02-21T07:01:02;17.98;;;10.75;;
13985;SDS011;7067;51.832;8.296;2024-02-21T07:03:28;17.90;;;8.82;;
13985;SDS011;7067;51.832;8.296;2024-02-21T07:05:53;16.00;;;9.73;;
13985;SDS011;7067;51.832;8.296;2024-02-21T07:08:18;17.65;;;9.77;;
13985;SDS011;7067;51.832;8.296;2024-02-21T07:10:44;18.77;;;9.30;;
13985;SDS011;7067;51.832;8.296;2024-02-21T07:13:09;13.25;;;8.82;;
13985;SDS011;7067;51.832;8.296;2024-02-21T07:15:35;13.20;;;8.52;;
13985;SDS011;7067;51.832;8.296;2024-02-21T07:18:01;17.30;;;9.10;;
13985;SDS011;7067;51.832;8.296;2024-02-21T07:20:26;13.43;;;8.18;;
13985;SDS011;7067;51.832;8.296;2024-02-21T07:22:52;19.70;;;8.98;;
13985;SDS011;7067;51.832;8.296;2024-02-21T07:25:17;15.25;;;8.23;;
13985;SDS011;7067;51.832;8.296;2024-02-21T07:27:43;13.73;;;8.27;;
13985;SDS011;7067;51.832;8.296;2024-02-21T07:30:09;11.35;;;7.43;;
13985;SDS011;7067;51.832;8.296;2024-02-21T07:32:35;15.70;;;8.15;;
13985;SDS011;7067;51.832;8.296;2024-02-21T07:35:00;12.68;;;7.07;;
13985;SDS011;7067;51.832;8.296;2024-02-21T07:37:25;15.48;;;8.68;;
13985;SDS011;7067;51.832;8.296;2024-02-21T07:39:50;12.70;;;7.07;;
13985;SDS011;7067;51.832;8.296;2024-02-21T07:42:16;14.63;;;7.38;;
13985;SDS011;7067;51.832;8.296;2024-02-21T07:44:41;14.15;;;7.63;;
13985;SDS011;7067;51.832;8.296;2024-02-21T07:47:07;12.02;;;7.10;;
13985;SDS011;7067;51.832;8.296;2024-02-21T07:49:32;15.52;;;7.65;;
13985;SDS011;7067;51.832;8.296;2024-02-21T07:52:00;14.40;;;7.38;;
13985;SDS011;7067;51.832;8.296;2024-02-21T07:54:25;13.82;;;7.20;;
13985;SDS011;7067;51.832;8.296;2024-02-21T07:56:51;13.00;;;6.63;;
13985;SDS011;7067;51.832;8.296;2024-02-21T07:59:16;15.52;;;7.15;;
13985;SDS011;7067;51.832;8.296;2024-02-21T08:01:44;13.02;;;6.85;;
13985;SDS011;7067;51.832;8.296;2024-02-21T08:04:09;15.38;;;7.00;;
13985;SDS011;7067;51.832;8.296;2024-02-21T08:06:35;12.85;;;6.85;;
13985;SDS011;7067;51.832;8.296;2024-02-21T08:09:00;12.27;;;6.70;;
13985;SDS011;7067;51.832;8.296;2024-02-21T08:11:25;10.80;;;6.43;;
13985;SDS011;7067;51.832;8.296;2024-02-21T08:13:51;13.18;;;6.50;;
13985;SDS011;7067;51.832;8.296;2024-02-21T08:16:16;13.95;;;7.07;;
13985;SDS011;7067;51.832;8.296;2024-02-21T08:18:43;9.70;;;6.22;;
13985;SDS011;7067;51.832;8.296;2024-02-21T08:21:09;12.38;;;6.68;;
13985;SDS011;7067;51.832;8.296;2024-02-21T08:23:34;11.10;;;6.15;;
13985;SDS011;7067;51.832;8.296;2024-02-21T08:26:02;14.52;;;6.03;;
13985;SDS011;7067;51.832;8.296;2024-02-21T08:28:28;8.82;;;5.45;;
13985;SDS011;7067;51.832;8.296;2024-02-21T08:30:53;16.90;;;6.68;;
13985;SDS011;7067;51.832;8.296;2024-02-21T08:33:19;11.35;;;5.88;;
13985;SDS011;7067;51.832;8.296;2024-02-21T08:35:49;10.73;;;7.20;;
13985;SDS011;7067;51.832;8.296;2024-02-21T08:38:14;13.70;;;6.80;;
13985;SDS011;7067;51.832;8.296;2024-02-21T08:40:40;14.27;;;6.22;;
13985;SDS011;7067;51.832;8.296;2024-02-21T08:43:05;10.98;;;5.18;;
13985;SDS011;7067;51.832;8.296;2024-02-21T08:45:30;7.55;;;5.05;;
13985;SDS011;7067;51.832;8.296;2024-02-21T08:47:56;7.93;;;4.43;;
13985;SDS011;7067;51.832;8.296;2024-02-21T08:50:21;6.05;;;4.80;;
13985;SDS011;7067;51.832;8.296;2024-02-21T08:52:46;11.38;;;5.38;;
13985;SDS011;7067;51.832;8.296;2024-02-21T08:55:12;8.80;;;5.10;;
13985;SDS011;7067;51.832;8.296;2024-02-21T08:57:37;8.43;;;4.80;;
13985;SDS011;7067;51.832;8.296;2024-02-21T09:00:05;8.88;;;5.70;;
13985;SDS011;7067;51.832;8.296;2024-02-21T09:02:40;9.30;;;5.25;;
13985;SDS011;7067;51.832;8.296;2024-02-21T09:05:08;7.57;;;4.95;;
13985;SDS011;7067;51.832;8.296;2024-02-21T09:07:33;8.40;;;4.68;;
13985;SDS011;7067;51.832;8.296;2024-02-21T09:09:59;10.13;;;4.97;;
13985;SDS011;7067;51.832;8.296;2024-02-21T09:12:25;8.40;;;5.25;;
13985;SDS011;7067;51.832;8.296;2024-02-21T09:14:51;9.57;;;4.88;;
13985;SDS011;7067;51.832;8.296;2024-02-21T09:17:16;9.60;;;5.45;;
13985;SDS011;7067;51.832;8.296;2024-02-21T09:19:46;12.98;;;5.90;;
13985;SDS011;7067;51.832;8.296;2024-02-21T09:22:12;9.32;;;5.75;;
13985;SDS011;7067;51.832;8.296;2024-02-21T09:24:37;7.10;;;5.32;;
13985;SDS011;7067;51.832;8.296;2024-02-21T09:27:03;6.85;;;4.72;;
13985;SDS011;7067;51.832;8.296;2024-02-21T09:29:28;10.32;;;5.15;;
13985;SDS011;7067;51.832;8.296;2024-02-21T09:31:54;11.45;;;5.45;;
13985;SDS011;7067;51.832;8.296;2024-02-21T09:34:19;8.80;;;4.70;;
13985;SDS011;7067;51.832;8.296;2024-02-21T09:36:44;9.57;;;4.85;;
13985;SDS011;7067;51.832;8.296;2024-02-21T09:39:10;8.70;;;5.80;;
13985;SDS011;7067;51.832;8.296;2024-02-21T09:41:39;9.63;;;6.45;;
13985;SDS011;7067;51.832;8.296;2024-02-21T09:44:10;7.30;;;5.63;;
13985;SDS011;7067;51.832;8.296;2024-02-21T09:49:32;14.20;;;6.95;;
13985;SDS011;7067;51.832;8.296;2024-02-21T09:52:01;12.57;;;7.85;;
13985;SDS011;7067;51.832;8.296;2024-02-21T09:54:28;11.90;;;7.50;;
13985;SDS011;7067;51.832;8.296;2024-02-21T09:56:55;14.13;;;7.85;;
13985;SDS011;7067;51.832;8.296;2024-02-21T09:59:20;11.05;;;7.55;;
13985;SDS011;7067;51.832;8.296;2024-02-21T10:01:46;9.82;;;7.80;;
13985;SDS011;7067;51.832;8.296;2024-02-21T10:04:11;10.90;;;7.82;;
13985;SDS011;7067;51.832;8.296;2024-02-21T10:06:37;12.02;;;8.38;;
13985;SDS011;7067;51.832;8.296;2024-02-21T10:09:03;8.43;;;7.63;;
13985;SDS011;7067;51.832;8.296;2024-02-21T10:11:31;8.45;;;7.63;;
13985;SDS011;7067;51.832;8.296;2024-02-21T10:14:03;10.98;;;8.02;;
13985;SDS011;7067;51.832;8.296;2024-02-21T10:16:31;13.20;;;8.27;;
13985;SDS011;7067;51.832;8.296;2024-02-21T10:18:56;15.85;;;9.00;;
13985;SDS011;7067;51.832;8.296;2024-02-21T10:21:22;12.80;;;8.00;;
13985;SDS011;7067;51.832;8.296;2024-02-21T10:23:50;13.82;;;8.40;;
13985;SDS011;7067;51.832;8.296;2024-02-21T10:26:17;11.95;;;7.53;;
13985;SDS011;7067;51.832;8.296;2024-02-21T10:28:44;11.25;;;8.13;;
13985;SDS011;7067;51.832;8.296;2024-02-21T10:31:25;12.32;;;9.18;;
13985;SDS011;7067;51.832;8.296;2024-02-21T10:33:58;11.20;;;7.97;;
13985;SDS011;7067;51.832;8.296;2024-02-21T10:36:25;8.00;;;7.15;;
13985;SDS011;7067;51.832;8.296;2024-02-21T10:38:54;14.20;;;7.75;;
13985;SDS011;7067;51.832;8.296;2024-02-21T10:41:20;14.77;;;8.27;;
13985;SDS011;7067;51.832;8.296;2024-02-21T10:43:47;9.95;;;7.78;;
13985;SDS011;7067;51.832;8.296;2024-02-21T10:46:15;8.85;;;7.80;;
13985;SDS011;7067;51.832;8.296;2024-02-21T10:48:44;14.27;;;8.43;;
13985;SDS011;7067;51.832;8.296;2024-02-21T10:51:17;12.93;;;8.25;;
13985;SDS011;7067;51.832;8.296;2024-02-21T10:53:53;11.65;;;8.65;;
13985;SDS011;7067;51.832;8.296;2024-02-21T10:56:33;17.70;;;8.90;;
13985;SDS011;7067;51.832;8.296;2024-02-21T10:59:03;12.63;;;8.05;;
13985;SDS011;7067;51.832;8.296;2024-02-21T11:01:29;9.10;;;7.78;;
13985;SDS011;7067;51.832;8.296;2024-02-21T11:03:57;12.07;;;7.50;;
13985;SDS011;7067;51.832;8.296;2024-02-21T11:06:24;12.35;;;8.00;;
13985;SDS011;7067;51.832;8.296;2024-02-21T11:09:00;9.73;;;7.22;;
13985;SDS011;7067;51.832;8.296;2024-02-21T11:11:29;10.50;;;7.15;;
13985;SDS011;7067;51.832;8.296;2024-02-21T11:14:07;10.68;;;7.53;;
13985;SDS011;7067;51.832;8.296;2024-02-21T11:16:37;11.38;;;7.43;;
13985;SDS011;7067;51.832;8.296;2024-02-21T11:19:04;8.40;;;7.43;;
13985;SDS011;7067;51.832;8.296;2024-02-21T11:21:34;11.30;;;7.13;;
13985;SDS011;7067;51.832;8.296;2024-02-21T11:24:04;12.68;;;7.32;;
13985;SDS011;7067;51.832;8.296;2024-02-21T11:26:30;11.95;;;7.50;;
13985;SDS011;7067;51.832;8.296;2024-02-21T11:29:02;8.57;;;6.75;;
13985;SDS011;7067;51.832;8.296;2024-02-21T11:31:40;11.13;;;7.30;;
13985;SDS011;7067;51.832;8.296;2024-02-21T11:34:09;10.77;;;7.80;;
13985;SDS011;7067;51.832;8.296;2024-02-21T11:36:35;12.57;;;7.72;;
13985;SDS011;7067;51.832;8.296;2024-02-21T11:39:04;10.88;;;7.38;;
13985;SDS011;7067;51.832;8.296;2024-02-21T11:41:30;9.65;;;6.28;;
13985;SDS011;7067;51.832;8.296;2024-02-21T11:43:56;9.43;;;6.93;;
13985;SDS011;7067;51.832;8.296;2024-02-21T11:46:21;9.02;;;6.32;;
13985;SDS011;7067;51.832;8.296;2024-02-21T11:48:46;6.60;;;4.35;;
13985;SDS011;7067;51.832;8.296;2024-02-21T11:51:21;6.20;;;4.22;;
13985;SDS011;7067;51.832;8.296;2024-02-21T11:53:49;9.80;;;4.70;;
13985;SDS011;7067;51.832;8.296;2024-02-21T11:56:15;9.75;;;4.07;;
13985;SDS011;7067;51.832;8.296;2024-02-21T11:58:41;10.05;;;5.35;;
13985;SDS011;7067;51.832;8.296;2024-02-21T12:01:07;13.02;;;6.57;;
13985;SDS011;7067;51.832;8.296;2024-02-21T12:03:33;11.73;;;6.88;;
13985;SDS011;7067;51.832;8.296;2024-02-21T12:06:01;16.00;;;9.00;;
13985;SDS011;7067;51.832;8.296;2024-02-21T12:08:28;19.65;;;9.95;;
13985;SDS011;7067;51.832;8.296;2024-02-21T12:11:15;13.77;;;8.65;;
13985;SDS011;7067;51.832;8.296;2024-02-21T12:13:44;21.65;;;9.40;;
13985;SDS011;7067;51.832;8.296;2024-02-21T12:16:10;17.20;;;8.15;;
13985;SDS011;7067;51.832;8.296;2024-02-21T12:18:36;14.50;;;7.70;;
13985;SDS011;7067;51.832;8.296;2024-02-21T12:21:01;12.32;;;6.32;;
13985;SDS011;7067;51.832;8.296;2024-02-21T12:23:26;14.63;;;7.18;;
13985;SDS011;7067;51.832;8.296;2024-02-21T12:25:52;11.93;;;6.35;;
13985;SDS011;7067;51.832;8.296;2024-02-21T12:28:20;11.48;;;6.30;;
13985;SDS011;7067;51.832;8.296;2024-02-21T12:30:47;11.23;;;6.03;;
13985;SDS011;7067;51.832;8.296;2024-02-21T12:33:12;13.65;;;6.20;;
13985;SDS011;7067;51.832;8.296;2024-02-21T12:35:39;15.25;;;6.25;;
13985;SDS011;7067;51.832;8.296;2024-02-21T12:38:05;10.75;;;6.00;;
13985;SDS011;7067;51.832;8.296;2024-02-21T12:40:30;10.63;;;6.25;;
13985;SDS011;7067;51.832;8.296;2024-02-21T12:42:58;7.72;;;4.93;;
13985;SDS011;7067;51.832;8.296;2024-02-21T12:45:24;12.48;;;6.07;;
13985;SDS011;7067;51.832;8.296;2024-02-21T12:47:50;14.02;;;5.95;;
13985;SDS011;7067;51.832;8.296;2024-02-21T12:50:15;8.50;;;5.57;;
13985;SDS011;7067;51.832;8.296;2024-02-21T12:52:40;9.38;;;5.50;;
13985;SDS011;7067;51.832;8.296;2024-02-21T12:55:06;7.32;;;4.90;;
13985;SDS011;7067;51.832;8.296;2024-02-21T12:57:32;9.68;;;5.07;;
13985;SDS011;7067;51.832;8.296;2024-02-21T12:59:57;11.60;;;5.47;;
13985;SDS011;7067;51.832;8.296;2024-02-21T13:02:23;10.45;;;5.18;;
13985;SDS011;7067;51.832;8.296;2024-02-21T13:04:48;8.45;;;4.75;;
13985;SDS011;7067;51.832;8.296;2024-02-21T13:07:13;7.05;;;4.65;;
13985;SDS011;7067;51.832;8.296;2024-02-21T13:09:39;8.43;;;4.53;;
13985;SDS011;7067;51.832;8.296;2024-02-21T13:12:05;7.80;;;3.83;;
13985;SDS011;7067;51.832;8.296;2024-02-21T13:14:31;8.23;;;3.25;;
13985;SDS011;7067;51.832;8.296;2024-02-21T13:16:58;7.75;;;3.67;;
13985;SDS011;7067;51.832;8.296;2024-02-21T13:19:23;5.55;;;3.05;;
13985;SDS011;7067;51.832;8.296;2024-02-21T13:21:48;6.88;;;3.60;;
13985;SDS011;7067;51.832;8.296;2024-02-21T13:24:14;6.68;;;3.50;;
13985;SDS011;7067;51.832;8.296;2024-02-21T13:26:39;8.30;;;3.10;;
13985;SDS011;7067;51.832;8.296;2024-02-21T13:29:04;12.50;;;3.60;;
13985;SDS011;7067;51.832;8.296;2024-02-21T13:31:30;6.15;;;3.17;;
13985;SDS011;7067;51.832;8.296;2024-02-21T13:33:55;6.90;;;3.47;;
13985;SDS011;7067;51.832;8.296;2024-02-21T13:36:20;7.32;;;4.07;;
13985;SDS011;7067;51.832;8.296;2024-02-21T13:38:46;6.80;;;3.70;;
13985;SDS011;7067;51.832;8.296;2024-02-21T13:41:12;6.78;;;3.45;;
13985;SDS011;7067;51.832;8.296;2024-02-21T13:43:37;4.53;;;2.78;;
13985;SDS011;7067;51.832;8.296;2024-02-21T13:46:02;9.00;;;3.22;;
13985;SDS011;7067;51.832;8.296;2024-02-21T13:48:30;8.57;;;3.20;;
13985;SDS011;7067;51.832;8.296;2024-02-21T13:50:56;10.80;;;3.05;;
13985;SDS011;7067;51.832;8.296;2024-02-21T13:53:21;9.02;;;3.90;;
13985;SDS011;7067;51.832;8.296;2024-02-21T13:55:47;10.48;;;3.65;;
13985;SDS011;7067;51.832;8.296;2024-02-21T13:58:13;7.05;;;3.08;;
13985;SDS011;7067;51.832;8.296;2024-02-21T14:00:39;6.57;;;3.03;;
13985;SDS011;7067;51.832;8.296;2024-02-21T14:03:04;7.20;;;3.35;;
13985;SDS011;7067;51.832;8.296;2024-02-21T14:05:30;8.77;;;4.07;;
13985;SDS011;7067;51.832;8.296;2024-02-21T14:07:55;8.68;;;3.67;;
13985;SDS011;7067;51.832;8.296;2024-02-21T14:10:21;8.52;;;3.42;;
13985;SDS011;7067;51.832;8.296;2024-02-21T14:12:47;9.52;;;3.45;;
13985;SDS011;7067;51.832;8.296;2024-02-21T14:15:13;6.75;;;3.20;;
13985;SDS011;7067;51.832;8.296;2024-02-21T14:17:39;5.22;;;2.70;;
13985;SDS011;7067;51.832;8.296;2024-02-21T14:20:05;6.25;;;2.75;;
13985;SDS011;7067;51.832;8.296;2024-02-21T14:22:33;7.85;;;2.92;;
13985;SDS011;7067;51.832;8.296;2024-02-21T14:24:59;6.60;;;3.38;;
13985;SDS011;7067;51.832;8.296;2024-02-21T14:27:25;8.50;;;3.00;;
13985;SDS011;7067;51.832;8.296;2024-02-21T14:29:50;6.45;;;3.47;;
13985;SDS011;7067;51.832;8.296;2024-02-21T14:32:15;7.95;;;3.20;;
13985;SDS011;7067;51.832;8.296;2024-02-21T14:34:41;6.68;;;3.22;;
13985;SDS011;7067;51.832;8.296;2024-02-21T14:37:06;10.10;;;3.05;;
13985;SDS011;7067;51.832;8.296;2024-02-21T14:39:31;6.38;;;3.35;;
13985;SDS011;7067;51.832;8.296;2024-02-21T14:41:59;7.03;;;2.78;;